Flight Track Log - Related Links

Times and Time Zones

All times are in EDT time to prevent confusion due to time zone crossing. See the ASH1048 flight status page for this flight to view local times or setup timezone preferences in your user account.

Time Position Orientation Groundspeed Altitude Reporting Facility
EDT Latitude Longitude Course Direction KTS MPH feet Rate Location/Type
Sun 01:39:53 PM 21.3167 -157.8833 148° Southeast 170 196 1,200  Level Honolulu Center
Sun 01:40:52 PM 21.2667 -157.8500 148° Southeast 210 242 3,400 2,319 Climbing Honolulu Center
Sun 01:41:52 PM 21.2167 -157.8167 148° Southeast 280 322 5,800 2,430 Climbing Honolulu Center
Sun 01:42:53 PM 21.2000 -157.7333 102° East 300 345 8,300 2,380 Climbing Honolulu Center
Sun 01:43:53 PM 21.2167 -157.6500 78° East 310 357 10,600 2,150 Climbing Honolulu Center
Sun 01:44:53 PM 21.2500 -157.5500 70° East 320 368 12,600 1,900 Climbing Honolulu Center
Sun 01:45:53 PM 21.2500 -157.4667 90° East 340 391 14,400 1,700 Climbing Honolulu Center
Sun 01:46:53 PM 21.2167 -157.3667 110° East 340 391 16,000 1,500 Climbing Honolulu Center
Sun 01:47:53 PM 21.1667 -157.2667 118° Southeast 360 414 17,400 1,350 Climbing Honolulu Center
Sun 01:48:53 PM 21.1167 -157.1667 118° Southeast 370 426 18,700 800 Climbing Honolulu Center
Sun 01:49:53 PM 21.0667 -157.0667 118° Southeast 390 449 19,000 150 Climbing Honolulu Center
Sun 01:50:53 PM 21.0167 -156.9500 115° Southeast 430 495 19,000  Level Honolulu Center
Sun 01:51:54 PM 20.9667 -156.8500 118° Southeast 420 483 19,000  Level Honolulu Center
Sun 01:52:54 PM 20.9167 -156.7333 115° Southeast 410 472 19,000  Level Honolulu Center
Sun 01:53:54 PM 20.8667 -156.6333 118° Southeast 410 472 19,000  Level Honolulu Center
Sun 01:54:54 PM 20.8000 -156.5167 121° Southeast 410 472 19,000  Level Honolulu Center
Sun 01:55:54 PM 20.7500 -156.4167 118° Southeast 410 472 19,000  Level Honolulu Center
Sun 01:56:54 PM 20.7000 -156.3000 115° Southeast 410 472 19,000  Level Honolulu Center
Sun 01:57:54 PM 20.6500 -156.2000 118° Southeast 410 472 19,000  Level Honolulu Center
Sun 01:58:55 PM 20.6000 -156.0833 115° Southeast 410 472 19,000  Level Honolulu Center
Sun 01:59:55 PM 20.5333 -155.9833 125° Southeast 410 472 19,000  Level Honolulu Center
Sun 02:00:55 PM 20.4833 -155.8833 118° Southeast 420 483 19,000  Level Honolulu Center
Sun 02:01:55 PM 20.4333 -155.7667 115° Southeast 410 472 19,000 -200 Level Honolulu Center
Sun 02:02:55 PM 20.3833 -155.6667 118° Southeast 400 460 18,600 -1,800 Descending Honolulu Center
Sun 02:03:55 PM 20.3333 -155.5500 115° Southeast 390 449 15,400 -2,950 Descending Honolulu Center
Sun 02:04:55 PM 20.2833 -155.4500 118° Southeast 370 426 12,700 -2,750 Descending Honolulu Center
Sun 02:05:55 PM 20.2333 -155.3667 123° Southeast 350 403 9,900 -2,200 Descending Honolulu Center
Sun 02:06:55 PM 20.1833 -155.3000 129° Southeast 290 334 8,300 -1,736 Descending Honolulu Center
Sun 02:07:56 PM 20.1333 -155.2333 129° Southeast 280 322 6,400 -1,785 Descending Honolulu Center
Sun 02:08:56 PM 20.0833 -155.1667 129° Southeast 270 311 4,700 -1,361 Descending Honolulu Center
Sun 02:09:55 PM 20.0333 -155.1167 137° Southeast 250 288 3,700 -958 Descending Honolulu Center
Sun 02:10:55 PM 19.9833 -155.0667 137° Southeast 250 288 2,800 -942 Descending Honolulu Center
Sun 02:11:56 PM 19.9000 -155.0667 180° South 250 288 1,800 -694 Descending Honolulu Center
Sun 02:12:56 PM 19.8500 -155.0667 180° South 240 276 1,400 -150 Descending Honolulu Center
Sun 02:13:56 PM 19.7833 -155.0667 180° South 170 196 1,500 -100 Climbing Honolulu Center
Sun 02:14:56 PM 19.7500 -155.0833 205° Southwest 140 161 1,200 -500 Descending Honolulu Center
Sun 02:15:56 PM 19.7167 -155.0667 155° Southeast 130 150 500 -700 Descending Honolulu Center

Login

Don't have an account? Register now (free) for customized features, flight alerts, and more!